Time;durP1;ratioP1;P1;durP2;ratioP2;P2;SDS_P1;SDS_P2;PMS_P1;PMS_P2;Temp;Humidity;BMP_temperature;BMP_pressure;BME280_temperature;BME280_humidity;BME280_pressure;Samples;Min_cycle;Max_cycle;Signal;HPM_P1;HPM_P2
2022/01/20 00:01:47;;;;;;;5.47;4.80;;;;;;;4.87;84.13;100731.13;10497082;28;20425;-72
2022/01/20 00:28:14;;;;;;;4.93;4.43;;;;;;;4.80;84.53;100750.81;10489546;28;20467;-70
2022/01/20 00:33:22;;;;;;;5.25;4.75;;;;;;;4.75;85.02;100756.31;10410406;22;20469;-58
2022/01/20 00:38:24;;;;;;;5.65;5.15;;;;;;;4.70;84.64;100737.22;10285733;28;20050;-58
2022/01/20 00:43:26;;;;;;;5.55;4.80;;;;;;;4.85;84.50;100754.94;10446706;28;20044;-58
2022/01/20 00:48:27;;;;;;;6.13;4.78;;;;;;;4.98;84.57;100759.63;10490847;28;20043;-57
2022/01/20 00:53:29;;;;;;;4.15;3.75;;;;;;;5.04;84.11;100767.22;10495755;28;20098;-58
2022/01/20 00:58:30;;;;;;;4.82;4.25;;;;;;;5.20;83.82;100770.81;10493767;28;20582;-58
2022/01/20 01:03:32;;;;;;;5.43;4.82;;;;;;;5.22;83.19;100783.94;10492831;28;20163;-58
2022/01/20 01:08:33;;;;;;;5.20;4.70;;;;;;;5.23;83.35;100773.31;10491855;28;20471;-58
2022/01/20 01:13:36;;;;;;;5.88;4.78;;;;;;;5.13;83.41;100758.84;10488110;28;20098;-58
2022/01/20 01:23:57;;;;;;;4.95;4.45;;;;;;;4.99;83.83;100756.91;10488017;28;20044;-57
2022/01/20 01:29:00;;;;;;;5.00;4.50;;;;;;;5.00;84.13;100779.72;10489645;28;20126;-57
2022/01/20 01:34:09;;;;;;;5.63;4.68;;;;;;;4.86;84.57;100761.91;10486976;28;20067;-57
2022/01/20 01:39:10;;;;;;;5.30;4.78;;;;;;;4.98;84.33;100772.81;10465448;28;20597;-57
2022/01/20 01:44:19;;;;;;;5.40;4.68;;;;;;;4.85;84.36;100768.16;10493097;28;20101;-57
2022/01/20 01:49:21;;;;;;;4.68;4.20;;;;;;;4.87;84.01;100765.44;10490020;28;20052;-56
2022/01/20 01:54:24;;;;;;;8.30;5.47;;;;;;;4.83;84.13;100792.88;10488001;28;20052;-56
2022/01/20 01:59:25;;;;;;;5.40;4.88;;;;;;;4.98;83.77;100801.84;10489662;28;20634;-56
2022/01/20 02:04:27;;;;;;;6.05;4.60;;;;;;;5.04;83.29;100806.81;10492415;28;20048;-56
2022/01/20 02:19:55;;;;;;;7.43;4.85;;;;;;;5.15;82.39;100778.13;10485586;28;20127;-57
2022/01/20 02:24:56;;;;;;;8.45;5.30;;;;;;;5.08;82.87;100787.28;10491945;28;20067;-57
2022/01/20 02:29:57;;;;;;;7.10;5.10;;;;;;;5.03;82.76;100789.25;10499189;28;20495;-57
2022/01/20 02:34:59;;;;;;;6.30;5.05;;;;;;;5.00;82.35;100774.47;10494855;28;20072;-56
2022/01/20 02:40:27;;;;;;;7.80;5.75;;;;;;;5.21;82.20;100792.78;10496700;28;20071;-57
2022/01/20 02:45:22;;;;;;;11.45;5.35;;;;;;;5.30;81.46;100795.84;10498453;28;20127;-58
2022/01/20 02:50:23;;;;;;;7.18;4.85;;;;;;;5.37;81.51;100814.00;10495796;28;20064;-58
2022/01/20 02:55:25;;;;;;;8.95;5.00;;;;;;;5.45;81.18;100799.50;10492215;28;20129;-58
2022/01/20 03:00:30;;;;;;;7.70;4.60;;;;;;;5.27;80.93;100785.44;10495808;28;20265;-58
2022/01/20 03:05:31;;;;;;;7.85;4.57;;;;;;;5.49;81.13;100802.81;10494281;28;20526;-57
2022/01/20 03:10:33;;;;;;;8.70;4.68;;;;;;;5.53;80.37;100801.75;10490310;28;20529;-56
2022/01/20 03:15:35;;;;;;;8.93;5.07;;;;;;;5.41;80.12;100795.28;10493276;28;20059;-56
2022/01/20 03:20:37;;;;;;;9.25;5.32;;;;;;;5.35;80.22;100810.59;10494192;28;20048;-57
2022/01/20 03:25:39;;;;;;;13.85;6.00;;;;;;;5.28;80.27;100810.91;10490530;28;20063;-56
2022/01/20 03:30:40;;;;;;;11.20;5.10;;;;;;;5.21;80.63;100822.69;10486295;28;20497;-57
2022/01/20 03:35:42;;;;;;;11.25;5.50;;;;;;;5.08;80.31;100808.38;10491755;28;20048;-57
2022/01/20 03:40:43;;;;;;;10.80;6.18;;;;;;;5.05;80.22;100796.19;10497141;28;20109;-57
2022/01/20 03:45:49;;;;;;;10.48;5.50;;;;;;;5.11;80.21;100802.94;10490132;28;20663;-58
2022/01/20 03:51:00;;;;;;;11.95;5.70;;;;;;;4.91;79.28;100785.47;10490079;28;20070;-57
2022/01/20 03:56:03;;;;;;;12.15;5.47;;;;;;;4.99;79.00;100808.84;10492218;28;20068;-57
2022/01/20 04:01:04;;;;;;;11.88;5.65;;;;;;;4.96;77.73;100820.38;10491818;28;20113;-61
2022/01/20 04:06:07;;;;;;;9.93;5.07;;;;;;;5.09;76.92;100813.59;10488987;28;20059;-57
2022/01/20 04:11:11;;;;;;;11.68;5.50;;;;;;;4.88;76.40;100802.28;10488729;28;20491;-57
2022/01/20 04:16:20;;;;;;;10.87;5.60;;;;;;;4.82;75.82;100791.16;10493267;28;20107;-57
2022/01/20 04:21:24;;;;;;;14.85;7.25;;;;;;;4.70;75.48;100774.13;10487380;28;20040;-57
2022/01/20 04:26:27;;;;;;;12.23;5.03;;;;;;;4.95;74.96;100802.84;10488372;28;20097;-57
2022/01/20 04:31:30;;;;;;;16.05;6.50;;;;;;;4.87;75.64;100797.09;10491759;28;20117;-58
2022/01/20 04:36:36;;;;;;;12.88;5.78;;;;;;;4.82;75.54;100788.53;10491334;28;20048;-57
2022/01/20 04:41:38;;;;;;;13.40;6.28;;;;;;;4.85;76.00;100776.06;10489419;28;20067;-56
2022/01/20 04:47:10;;;;;;;11.38;6.18;;;;;;;4.83;75.76;100769.97;10488329;28;20078;-58
2022/01/20 04:57:24;;;;;;;15.48;5.90;;;;;;;4.94;75.75;100780.88;10479230;28;20139;-58
2022/01/20 05:02:28;;;;;;;12.65;6.80;;;;;;;4.83;75.40;100751.50;10476016;28;20243;-59
2022/01/20 05:07:30;;;;;;;16.10;6.70;;;;;;;4.99;75.29;100769.25;10483267;28;20055;-58
2022/01/20 05:17:52;;;;;;;13.20;6.00;;;;;;;5.09;75.22;100762.59;10482560;28;20048;-58
2022/01/20 05:22:54;;;;;;;17.35;7.22;;;;;;;5.21;74.62;100759.34;10482557;28;20052;-58
2022/01/20 05:27:55;;;;;;;13.88;5.97;;;;;;;5.03;74.44;100773.44;10491072;28;20098;-60
2022/01/20 05:32:58;;;;;;;15.10;5.78;;;;;;;5.08;75.22;100797.81;10478975;28;20082;-57
2022/01/20 05:38:00;;;;;;;10.88;5.38;;;;;;;5.06;75.79;100804.94;10480203;28;20109;-60
2022/01/20 05:43:03;;;;;;;12.60;5.15;;;;;;;5.10;76.21;100798.59;10479018;28;20048;-57
2022/01/20 05:48:20;;;;;;;10.45;4.72;;;;;;;5.03;76.67;100800.69;10487788;28;20796;-56
2022/01/20 05:53:22;;;;;;;11.73;5.07;;;;;;;5.12;77.24;100784.41;10485694;28;20566;-58
2022/01/20 05:58:24;;;;;;;9.90;3.88;;;;;;;4.91;77.88;100788.94;10471886;28;20087;-58
2022/01/20 06:03:37;;;;;;;10.02;3.60;;;;;;;4.99;78.23;100787.72;10454761;28;20414;-58
2022/01/20 06:08:41;;;;;;;11.40;3.88;;;;;;;4.98;78.45;100778.94;10464942;28;20052;-58
2022/01/20 06:13:43;;;;;;;8.05;3.83;;;;;;;5.06;78.53;100781.19;10466632;28;20078;-57
2022/01/20 06:18:45;;;;;;;16.90;5.90;;;;;;;4.94;78.54;100786.16;10468663;28;20128;-58
2022/01/20 06:23:47;;;;;;;15.23;5.90;;;;;;;5.07;78.56;100775.84;10464466;28;20650;-57
2022/01/20 06:28:48;;;;;;;17.17;5.10;;;;;;;4.96;79.20;100760.53;10467925;28;20588;-58
2022/01/20 06:33:50;;;;;;;15.38;5.00;;;;;;;5.00;80.24;100778.84;10463300;28;20068;-57
2022/01/20 06:38:52;;;;;;;14.73;5.60;;;;;;;4.89;80.16;100767.03;10460573;28;20056;-58
2022/01/20 06:43:53;;;;;;;12.82;5.68;;;;;;;5.02;80.20;100783.13;10463112;28;20962;-57
2022/01/20 06:48:55;;;;;;;15.85;4.57;;;;;;;5.04;80.41;100785.72;10464786;28;20929;-58
2022/01/20 06:53:56;;;;;;;13.38;5.20;;;;;;;4.98;80.09;100794.78;10463078;28;20178;-57
2022/01/20 06:58:58;;;;;;;12.15;4.13;;;;;;;4.86;80.18;100796.22;10467243;28;20070;-57
2022/01/20 07:03:59;;;;;;;11.30;4.72;;;;;;;4.82;80.56;100802.59;10460571;28;20056;-57
2022/01/20 07:09:01;;;;;;;13.07;2.97;;;;;;;4.87;80.44;100805.84;10461522;28;20212;-57
2022/01/20 07:14:02;;;;;;;11.35;3.83;;;;;;;5.25;82.62;100815.47;10468282;28;20126;-57
2022/01/20 07:19:04;;;;;;;8.75;4.18;;;;;;;5.08;80.49;100813.66;10467454;28;20132;-57
2022/01/20 07:24:07;;;;;;;12.57;3.97;;;;;;;4.94;80.53;100827.53;10468507;28;20591;-57
2022/01/20 07:29:09;;;;;;;10.07;4.00;;;;;;;5.08;82.27;100850.59;10461484;28;20136;-56
2022/01/20 07:34:10;;;;;;;8.98;3.63;;;;;;;5.02;81.17;100841.19;10457320;28;20056;-57
2022/01/20 07:39:12;;;;;;;9.93;3.33;;;;;;;4.96;81.51;100852.88;10466871;28;20144;-56
2022/01/20 07:44:17;;;;;;;16.77;3.88;;;;;;;4.93;81.38;100855.66;10472286;28;20172;-57
2022/01/20 07:49:18;;;;;;;;;;;;;;;4.94;80.45;100857.41;10455552;28;20052;-59
2022/01/20 07:54:21;;;;;;;8.30;2.53;;;;;;;4.84;80.88;100877.22;10453858;28;20019;-59
2022/01/20 07:59:24;;;;;;;8.07;2.58;;;;;;;4.86;81.27;100877.16;10459446;28;20112;-59
2022/01/20 08:04:26;;;;;;;5.18;3.00;;;;;;;4.80;81.02;100880.91;10461587;28;20125;-57
2022/01/20 08:09:27;;;;;;;6.25;2.85;;;;;;;4.88;80.99;100881.44;10460687;28;20687;-57
2022/01/20 08:14:49;;;;;;;7.82;3.00;;;;;;;4.89;80.28;100885.75;10466285;28;20417;-57
2022/01/20 08:19:52;;;;;;;5.38;2.50;;;;;;;4.60;81.55;100877.41;10463769;28;20519;-57
2022/01/20 08:24:53;;;;;;;4.32;1.65;;;;;;;4.67;82.47;100919.31;10462829;28;20202;-58
2022/01/20 08:29:55;;;;;;;4.57;1.40;;;;;;;4.71;82.98;100931.47;10461624;28;20182;-57
2022/01/20 08:35:04;;;;;;;4.97;1.83;;;;;;;4.75;82.77;100928.59;10461311;28;20062;-57
2022/01/20 08:40:09;;;;;;;6.35;1.83;;;;;;;5.01;82.32;100930.97;10462163;28;20125;-57
2022/01/20 08:45:13;;;;;;;4.93;1.85;;;;;;;5.49;81.29;100935.72;10465577;28;20056;-56
2022/01/20 08:50:15;;;;;;;2.10;1.20;;;;;;;5.42;81.08;100930.78;10463281;28;20290;-56
2022/01/20 08:55:19;;;;;;;5.77;2.00;;;;;;;5.57;80.78;100932.72;10461397;28;20183;-56
2022/01/20 09:00:23;;;;;;;3.47;1.27;;;;;;;5.52;77.90;100955.00;10462992;28;20229;-57
2022/01/20 09:05:26;;;;;;;2.50;0.98;;;;;;;5.21;75.30;100972.28;10465615;28;20043;-57
2022/01/20 09:10:36;;;;;;;3.90;1.15;;;;;;;5.18;74.00;100962.72;10461713;28;20473;-57
2022/01/20 09:15:38;;;;;;;3.63;1.15;;;;;;;5.38;76.26;100995.25;10466186;28;20127;-57
2022/01/20 09:20:40;;;;;;;3.63;1.13;;;;;;;5.81;73.35;100985.25;10459374;28;20084;-57
2022/01/20 09:25:42;;;;;;;6.00;2.03;;;;;;;5.95;71.61;100995.16;10462931;28;20567;-56
2022/01/20 09:30:46;;;;;;;3.97;1.70;;;;;;;5.82;69.88;100971.13;10463113;28;20357;-57
2022/01/20 09:35:47;;;;;;;3.13;1.20;;;;;;;6.21;69.50;100993.88;10462076;28;20219;-56
2022/01/20 09:40:49;;;;;;;4.00;1.80;;;;;;;6.79;67.77;101018.28;10459537;28;20059;-56
2022/01/20 09:45:57;;;;;;;4.13;1.55;;;;;;;7.00;66.55;101027.75;10457167;28;20048;-57
2022/01/20 09:51:00;;;;;;;5.35;1.60;;;;;;;6.40;66.66;101043.22;10460663;28;20159;-56
2022/01/20 09:56:02;;;;;;;2.38;1.52;;;;;;;6.76;63.18;101058.16;10458959;28;20074;-56
2022/01/20 10:01:10;;;;;;;2.28;0.90;;;;;;;7.17;60.21;101052.47;10466091;28;20052;-57
2022/01/20 10:06:14;;;;;;;2.72;0.85;;;;;;;7.38;57.28;101064.53;10466994;28;20362;-56
2022/01/20 10:11:17;;;;;;;4.93;1.13;;;;;;;7.76;55.24;101056.28;10459462;28;20120;-56
2022/01/20 10:16:18;;;;;;;2.17;0.93;;;;;;;7.65;54.39;101071.91;10461249;28;20048;-57
2022/01/20 10:21:32;;;;;;;3.75;1.40;;;;;;;7.42;54.93;101081.97;10455478;28;20063;-55
2022/01/20 10:26:34;;;;;;;4.95;1.52;;;;;;;6.24;53.84;101067.75;10461155;28;20063;-60
2022/01/20 10:31:41;;;;;;;2.72;1.17;;;;;;;6.00;56.73;101052.19;10458014;28;20644;-56
2022/01/20 10:36:52;;;;;;;4.30;1.35;;;;;;;6.09;58.34;101060.59;10463601;28;20369;-56
2022/01/20 10:42:01;;;;;;;6.90;1.45;;;;;;;6.04;57.66;101055.53;10464056;28;20105;-57
2022/01/20 10:47:03;;;;;;;4.63;1.02;;;;;;;6.03;59.13;101060.91;10459035;28;20131;-57
2022/01/20 10:52:08;;;;;;;3.83;1.08;;;;;;;6.18;59.36;101065.44;10468366;28;20450;-55
2022/01/20 10:57:11;;;;;;;4.53;1.90;;;;;;;6.24;59.86;101054.53;10469413;28;20044;-56
2022/01/20 11:02:13;;;;;;;4.10;1.00;;;;;;;6.00;56.78;101062.78;10465855;28;20048;-56
2022/01/20 11:07:15;;;;;;;3.97;1.30;;;;;;;6.04;57.80;101068.75;10471465;28;20067;-56
2022/01/20 11:12:17;;;;;;;5.32;1.45;;;;;;;7.35;52.98;101056.75;10471417;28;20135;-55
2022/01/20 11:17:24;;;;;;;6.20;1.55;;;;;;;12.33;43.26;101058.56;10465656;28;20128;-55
2022/01/20 11:22:26;;;;;;;3.97;1.20;;;;;;;16.01;34.96;101057.84;10465221;28;20135;-57
2022/01/20 11:27:42;;;;;;;3.30;1.33;;;;;;;20.01;29.64;101054.31;10466952;28;20036;-57
2022/01/20 11:32:56;;;;;;;5.63;1.25;;;;;;;21.93;25.63;101043.81;10463158;28;20098;-58
2022/01/20 11:37:59;;;;;;;4.00;1.55;;;;;;;20.45;25.63;101031.53;10467299;28;20044;-58
2022/01/20 11:43:10;;;;;;;7.00;1.50;;;;;;;20.33;25.97;101032.88;10462467;28;20152;-56
2022/01/20 11:48:19;;;;;;;5.65;1.75;;;;;;;22.60;21.76;101046.69;10469249;28;20078;-56
2022/01/20 11:53:20;;;;;;;5.38;1.35;;;;;;;22.94;21.66;101048.09;10464990;28;20554;-57
2022/01/20 11:58:25;;;;;;;2.55;1.02;;;;;;;20.55;23.47;101040.34;10468006;28;20715;-57
2022/01/20 12:03:28;;;;;;;4.15;0.90;;;;;;;14.46;29.44;101041.72;10466209;28;20051;-57
2022/01/20 12:08:30;;;;;;;2.92;0.85;;;;;;;10.54;36.54;101041.94;10462076;28;20495;-57
2022/01/20 12:13:32;;;;;;;3.17;0.82;;;;;;;8.51;41.13;101055.56;10465584;28;20111;-57
2022/01/20 12:18:33;;;;;;;2.50;0.88;;;;;;;7.11;45.98;101066.88;10465510;28;20160;-57
2022/01/20 12:23:42;;;;;;;3.80;1.10;;;;;;;6.92;48.10;101082.00;10463750;28;20040;-57
2022/01/20 12:28:44;;;;;;;3.80;1.90;;;;;;;6.52;49.62;101076.97;10466030;28;20113;-56
2022/01/20 12:33:46;;;;;;;3.38;1.08;;;;;;;6.40;53.58;101080.25;10462520;22;20060;-57
2022/01/20 12:38:49;;;;;;;4.47;1.70;;;;;;;7.09;54.13;101087.28;10462323;28;20068;-56
2022/01/20 12:44:05;;;;;;;4.68;1.83;;;;;;;7.05;55.88;101093.69;10422827;28;20056;-58
2022/01/20 12:49:12;;;;;;;6.80;1.75;;;;;;;7.47;54.55;101094.13;10397828;28;20078;-58
2022/01/20 12:54:26;;;;;;;4.38;1.58;;;;;;;7.40;53.97;101081.22;10408877;28;20056;-57
2022/01/20 12:59:40;;;;;;;8.10;2.00;;;;;;;6.66;57.62;101081.56;10416881;28;20136;-56
2022/01/20 13:04:41;;;;;;;7.70;1.73;;;;;;;7.02;56.59;101099.97;10411194;28;20409;-56
2022/01/20 13:10:03;;;;;;;5.80;1.60;;;;;;;6.85;56.78;101071.75;10418253;28;20052;-56
2022/01/20 13:15:18;;;;;;;4.60;1.42;;;;;;;6.45;56.55;101070.28;10418135;28;20036;-57
2022/01/20 13:20:23;;;;;;;4.45;1.30;;;;;;;6.54;55.50;101070.69;10420384;28;20055;-56
2022/01/20 13:25:30;;;;;;;3.90;1.00;;;;;;;6.25;54.78;101072.13;10413964;28;20458;-57
2022/01/20 13:30:40;;;;;;;4.05;1.23;;;;;;;10.86;45.09;101068.16;10415251;28;20045;-57
2022/01/20 13:35:45;;;;;;;5.00;2.15;;;;;;;17.00;32.36;101054.13;10414072;28;20127;-56
2022/01/20 13:40:47;;;;;;;3.28;0.93;;;;;;;20.56;25.97;101046.56;10393286;28;20099;-57
2022/01/20 13:45:49;;;;;;;3.17;0.68;;;;;;;22.39;23.51;101070.97;10406847;28;20049;-57
2022/01/20 13:50:56;;;;;;;3.78;1.20;;;;;;;21.35;23.47;101052.19;10406546;28;20145;-56
2022/01/20 13:56:02;;;;;;;4.75;1.10;;;;;;;21.43;23.11;101054.88;10415314;28;20552;-58
2022/01/20 14:01:08;;;;;;;5.50;1.25;;;;;;;15.38;30.75;101051.69;10424297;28;20628;-57
2022/01/20 14:06:10;;;;;;;3.58;0.80;;;;;;;11.21;38.34;101072.84;10415776;28;20694;-57
2022/01/20 14:11:12;;;;;;;2.90;0.80;;;;;;;9.27;44.15;101093.53;10392047;28;20061;-57
2022/01/20 14:16:14;;;;;;;2.25;0.63;;;;;;;8.51;48.40;101086.56;10411138;28;20470;-57
2022/01/20 14:21:17;;;;;;;3.95;1.23;;;;;;;7.79;50.36;101064.06;10404573;28;20055;-57
2022/01/20 14:26:28;;;;;;;3.33;1.00;;;;;;;8.24;49.42;101095.16;10408177;28;20140;-56
2022/01/20 14:31:29;;;;;;;6.88;2.60;;;;;;;7.89;48.87;101079.44;10406402;28;20049;-57
2022/01/20 14:36:31;;;;;;;3.53;1.20;;;;;;;6.86;50.19;101089.34;10409160;28;20061;-58
2022/01/20 14:41:32;;;;;;;4.30;0.95;;;;;;;6.55;52.02;101100.63;10406371;28;20653;-56
2022/01/20 14:46:34;;;;;;;6.65;1.17;;;;;;;7.06;49.33;101085.66;10402833;28;20131;-57
2022/01/20 14:51:36;;;;;;;3.33;1.05;;;;;;;7.10;49.87;101091.66;10408355;28;20165;-57
2022/01/20 14:56:37;;;;;;;4.65;1.30;;;;;;;7.01;48.83;101082.41;10403412;28;20540;-56
2022/01/20 15:01:39;;;;;;;7.97;2.15;;;;;;;6.90;51.00;101098.84;10406385;28;20582;-58
2022/01/20 15:06:41;;;;;;;5.57;1.77;;;;;;;6.94;51.00;101102.19;10406157;28;20567;-58
2022/01/20 15:11:43;;;;;;;4.88;1.33;;;;;;;6.29;52.74;101110.72;10406360;28;20712;-55
2022/01/20 15:16:44;;;;;;;4.93;1.20;;;;;;;5.76;54.98;101106.16;10405676;28;20098;-57
2022/01/20 15:21:46;;;;;;;4.95;1.83;;;;;;;5.41;55.57;101098.94;10407773;28;20041;-58
2022/01/20 15:26:47;;;;;;;5.32;1.55;;;;;;;4.98;56.00;101092.09;10410027;28;20257;-57
2022/01/20 15:31:49;;;;;;;4.63;2.10;;;;;;;4.72;57.37;101107.25;10408082;28;20048;-59
2022/01/20 15:36:51;;;;;;;7.40;2.00;;;;;;;5.35;57.41;101112.44;10412121;28;20071;-56
2022/01/20 15:41:53;;;;;;;5.38;2.00;;;;;;;5.56;56.68;101120.31;10394035;28;20112;-58
2022/01/20 15:46:54;;;;;;;8.10;2.30;;;;;;;5.54;56.73;101112.47;10420346;28;20061;-57
2022/01/20 15:51:56;;;;;;;7.18;2.67;;;;;;;5.58;56.68;101129.84;10417323;28;20129;-59
2022/01/20 15:56:57;;;;;;;6.88;2.08;;;;;;;5.07;58.85;101115.44;10415481;28;20626;-58
2022/01/20 16:01:59;;;;;;;6.85;1.95;;;;;;;5.29;58.55;101118.81;10413558;28;20377;-57
2022/01/20 16:07:00;;;;;;;8.02;1.80;;;;;;;5.37;57.88;101109.72;10410852;28;20045;-58
2022/01/20 16:12:02;;;;;;;6.78;2.85;;;;;;;5.41;57.86;101137.69;10410106;28;20119;-58
2022/01/20 16:17:04;;;;;;;6.95;2.63;;;;;;;5.05;57.36;101138.41;10398816;28;20222;-59
2022/01/20 16:22:05;;;;;;;7.35;3.10;;;;;;;4.29;59.75;101122.22;10407674;28;20103;-58
2022/01/20 16:27:07;;;;;;;8.45;3.05;;;;;;;4.40;59.61;101149.00;10416577;28;20963;-58
2022/01/20 16:32:09;;;;;;;7.95;3.58;;;;;;;4.46;60.00;101169.84;10410543;28;20182;-58
2022/01/20 16:37:11;;;;;;;9.82;2.72;;;;;;;4.40;60.75;101170.09;10410937;28;20517;-57
2022/01/20 16:42:13;;;;;;;6.93;2.28;;;;;;;4.56;60.71;101175.59;10405947;28;20044;-57
2022/01/20 16:47:14;;;;;;;4.88;2.10;;;;;;;4.38;60.14;101171.91;10404267;28;20158;-58
2022/01/20 16:52:16;;;;;;;9.80;2.40;;;;;;;4.56;60.46;101150.09;10403943;28;20425;-59
2022/01/20 16:57:18;;;;;;;6.82;3.55;;;;;;;4.49;60.28;101172.38;10407201;28;20121;-57
2022/01/20 17:02:28;;;;;;;6.68;3.03;;;;;;;4.30;60.76;101188.03;10402497;28;20129;-57
2022/01/20 17:07:30;;;;;;;7.10;2.40;;;;;;;4.29;60.36;101203.91;10415118;28;20056;-58
2022/01/20 17:12:31;;;;;;;5.18;2.47;;;;;;;4.13;61.10;101201.00;10407376;28;20060;-58
2022/01/20 17:17:33;;;;;;;7.45;2.85;;;;;;;4.11;61.84;101216.88;10408451;28;20128;-57
2022/01/20 17:22:35;;;;;;;9.07;3.40;;;;;;;4.09;61.91;101218.72;10406499;28;20138;-58
2022/01/20 17:27:37;;;;;;;5.10;2.33;;;;;;;3.92;61.10;101210.59;10410950;28;20183;-59
2022/01/20 17:32:39;;;;;;;9.65;4.38;;;;;;;3.89;61.20;101225.59;10414610;28;20323;-58
2022/01/20 17:37:41;;;;;;;4.78;2.33;;;;;;;3.88;60.85;101234.41;10417871;28;20069;-58
2022/01/20 17:42:42;;;;;;;8.27;3.83;;;;;;;4.01;60.00;101248.00;10410854;28;20044;-58
2022/01/20 17:47:44;;;;;;;6.35;2.60;;;;;;;3.79;59.52;101261.09;10418102;28;20097;-57
2022/01/20 17:52:49;;;;;;;3.20;1.90;;;;;;;4.05;59.30;101246.97;10395005;28;20131;-58
2022/01/20 17:57:51;;;;;;;3.93;1.97;;;;;;;3.42;59.93;101246.59;10411428;28;20410;-59
2022/01/20 18:02:54;;;;;;;4.85;1.65;;;;;;;3.48;60.26;101246.41;10402223;28;20059;-57
2022/01/20 18:07:57;;;;;;;4.38;1.80;;;;;;;3.23;61.18;101232.34;10412629;28;20136;-57
2022/01/20 18:12:58;;;;;;;4.43;1.85;;;;;;;3.14;61.11;101237.03;10407128;28;20522;-59
2022/01/20 18:18:00;;;;;;;4.63;2.13;;;;;;;3.35;61.93;101227.53;10417580;28;20216;-58
2022/01/20 18:23:22;;;;;;;3.83;1.80;;;;;;;3.59;60.62;101239.88;10414901;28;20049;-58
2022/01/20 18:28:25;;;;;;;6.00;1.95;;;;;;;3.35;59.99;101221.41;10413534;28;20112;-59
2022/01/20 18:33:27;;;;;;;4.70;1.63;;;;;;;3.41;60.80;101251.91;10417897;28;20236;-57
2022/01/20 18:38:29;;;;;;;6.53;1.80;;;;;;;3.46;61.20;101250.84;10420324;28;20053;-58
2022/01/20 18:43:31;;;;;;;5.68;1.90;;;;;;;3.77;60.35;101260.31;10413165;28;20059;-58
2022/01/20 18:48:33;;;;;;;4.72;1.95;;;;;;;3.59;60.01;101239.88;10413497;28;20614;-58
2022/01/20 18:53:35;;;;;;;2.78;1.85;;;;;;;3.45;60.46;101251.78;10413381;28;20593;-57
2022/01/20 18:58:41;;;;;;;7.05;2.30;;;;;;;3.46;61.39;101261.38;10416143;28;20443;-57
2022/01/20 19:03:44;;;;;;;5.03;2.00;;;;;;;3.57;61.65;101282.06;10408548;28;20053;-59
2022/01/20 19:08:46;;;;;;;6.60;3.13;;;;;;;3.78;61.60;101277.81;10415144;28;20257;-57
2022/01/20 19:13:47;;;;;;;6.03;3.20;;;;;;;3.92;61.51;101279.97;10417273;28;20422;-58
2022/01/20 19:18:48;;;;;;;8.23;3.60;;;;;;;3.79;62.58;101276.91;10418253;28;20119;-56
2022/01/20 19:23:51;;;;;;;7.05;3.95;;;;;;;3.89;63.22;101283.56;10417891;28;22123;-58
2022/01/20 19:28:53;;;;;;;8.07;3.20;;;;;;;3.98;63.81;101273.59;10420965;28;20414;-57
2022/01/20 19:33:54;;;;;;;6.10;3.45;;;;;;;4.18;63.02;101276.34;10417548;28;20487;-57
2022/01/20 19:38:56;;;;;;;6.75;4.40;;;;;;;4.05;63.39;101269.81;10423719;28;20509;-56
2022/01/20 19:43:57;;;;;;;6.35;4.03;;;;;;;4.21;63.46;101278.03;10417221;28;20106;-56
2022/01/20 19:48:59;;;;;;;6.95;3.83;;;;;;;4.01;63.14;101262.97;10425085;28;20044;-56
2022/01/20 19:54:05;;;;;;;8.27;4.10;;;;;;;4.10;63.48;101294.25;10417694;28;20056;-56
2022/01/20 19:59:07;;;;;;;6.03;4.43;;;;;;;4.12;63.12;101292.38;10421636;28;20403;-56
2022/01/20 20:04:08;;;;;;;6.90;3.78;;;;;;;3.73;62.98;101274.47;10417782;28;20131;-56
2022/01/20 20:09:10;;;;;;;7.85;3.58;;;;;;;3.82;63.94;101289.94;10418206;28;20223;-56
2022/01/20 20:14:13;;;;;;;5.85;3.05;;;;;;;3.41;64.37;101289.63;10419052;28;20140;-56
2022/01/20 20:19:17;;;;;;;7.45;3.08;;;;;;;3.47;65.27;101297.31;10419288;28;20163;-56
2022/01/20 20:24:20;;;;;;;7.35;3.47;;;;;;;3.49;65.47;101287.59;10418692;28;20102;-55
2022/01/20 20:29:22;;;;;;;7.20;2.88;;;;;;;3.46;65.08;101303.50;10419547;28;20115;-57
2022/01/20 20:34:23;;;;;;;6.93;3.75;;;;;;;3.34;66.72;101298.66;10407650;28;20057;-57
2022/01/20 20:39:25;;;;;;;6.43;2.65;;;;;;;3.78;65.89;101322.56;10425359;28;21372;-55
2022/01/20 20:44:27;;;;;;;6.10;2.60;;;;;;;3.57;66.27;101336.50;10420257;28;20281;-57
2022/01/20 20:49:32;;;;;;;3.85;2.35;;;;;;;3.77;65.74;101336.69;10419557;28;20208;-56
2022/01/20 20:54:34;;;;;;;;;;;;;;;3.52;66.27;101329.59;10403799;28;20954;-58
2022/01/20 20:59:36;;;;;;;5.55;2.05;;;;;;;3.07;64.74;101353.88;10429024;28;19947;-56
2022/01/20 21:04:37;;;;;;;6.05;2.30;;;;;;;3.07;63.84;101356.53;10428216;28;20137;-56
2022/01/20 21:09:41;;;;;;;6.63;2.10;;;;;;;3.27;62.62;101355.03;10415312;28;20585;-55
2022/01/20 21:14:43;;;;;;;6.78;1.52;;;;;;;3.39;61.72;101370.41;10422060;28;20138;-56
2022/01/20 21:19:44;;;;;;;3.97;1.85;;;;;;;3.58;60.96;101380.34;10426369;28;20824;-56
2022/01/20 21:24:46;;;;;;;8.27;1.58;;;;;;;3.65;60.66;101376.59;10430906;28;20267;-57
2022/01/20 21:29:47;;;;;;;4.95;1.45;;;;;;;3.48;60.00;101385.94;10427367;28;20132;-57
2022/01/20 21:34:50;;;;;;;4.03;1.67;;;;;;;3.35;60.98;101405.66;10427923;28;20057;-56
2022/01/20 21:39:51;;;;;;;6.05;1.70;;;;;;;3.33;62.04;101413.59;10422789;28;21213;-57
2022/01/20 21:44:53;;;;;;;4.22;1.55;;;;;;;3.20;63.74;101422.78;10420789;28;20045;-57
2022/01/20 21:49:55;;;;;;;6.20;2.05;;;;;;;2.87;63.55;101386.09;10420749;28;20607;-56
2022/01/20 21:54:57;;;;;;;5.45;2.25;;;;;;;2.99;63.82;101390.13;10418231;28;20612;-56
2022/01/20 21:59:58;;;;;;;6.30;1.83;;;;;;;3.48;64.11;101433.31;10400962;28;20545;-57
2022/01/20 22:05:00;;;;;;;7.10;1.75;;;;;;;3.45;64.16;101433.41;10414336;28;20121;-57
2022/01/20 22:10:09;;;;;;;5.45;1.85;;;;;;;3.61;64.10;101422.38;10408468;28;20391;-56
2022/01/20 22:15:10;;;;;;;6.65;2.35;;;;;;;3.67;63.58;101422.19;10409009;28;20512;-56
2022/01/20 22:20:14;;;;;;;4.80;2.15;;;;;;;3.83;63.84;101439.19;10406702;28;20131;-57
2022/01/20 22:25:15;;;;;;;7.70;2.88;;;;;;;3.70;63.32;101429.97;10404931;28;20571;-57
2022/01/20 22:30:16;;;;;;;7.80;2.15;;;;;;;3.49;64.08;101437.66;10411760;28;20151;-57
2022/01/20 22:35:18;;;;;;;5.18;1.60;;;;;;;3.62;63.78;101440.75;10412027;28;20512;-57
2022/01/20 22:40:21;;;;;;;6.57;1.45;;;;;;;3.30;64.73;101436.50;10410739;28;20053;-56
2022/01/20 22:45:22;;;;;;;5.10;1.80;;;;;;;3.47;64.58;101421.06;10397695;28;20137;-61
2022/01/20 22:50:24;;;;;;;3.70;2.00;;;;;;;3.89;64.53;101464.47;10419019;28;20439;-57
2022/01/20 22:55:25;;;;;;;5.05;2.28;;;;;;;4.08;64.90;101467.34;10424430;28;20060;-57
2022/01/20 23:00:29;;;;;;;4.78;2.35;;;;;;;4.05;65.59;101475.34;10419506;28;20040;-59
2022/01/20 23:05:31;;;;;;;6.10;3.05;;;;;;;3.96;66.79;101471.22;10446302;28;20051;-56
2022/01/20 23:10:32;;;;;;;5.68;2.50;;;;;;;4.23;66.54;101480.00;10442566;28;20053;-56
2022/01/20 23:15:40;;;;;;;5.70;3.25;;;;;;;4.36;66.44;101492.75;10420168;28;20102;-56
2022/01/20 23:20:51;;;;;;;5.32;3.50;;;;;;;4.45;66.62;101500.34;10447874;28;20047;-57
2022/01/20 23:26:05;;;;;;;8.15;4.50;;;;;;;4.40;67.46;101487.31;10437686;28;20055;-58
2022/01/20 23:31:12;;;;;;;5.88;3.67;;;;;;;4.10;68.44;101478.69;10420652;28;20045;-56
2022/01/20 23:36:15;;;;;;;8.98;3.60;;;;;;;4.09;68.58;101492.78;10442178;28;20049;-57
2022/01/20 23:41:22;;;;;;;6.18;4.13;;;;;;;4.18;68.30;101505.63;10451169;28;20194;-57
2022/01/20 23:51:47;;;;;;;7.70;4.00;;;;;;;4.30;68.04;101511.41;10437747;28;20083;-56
2022/01/20 23:56:49;;;;;;;10.27;3.40;;;;;;;4.09;67.29;101490.16;10447737;28;20598;-55
